Time;durP1;ratioP1;P1;durP2;ratioP2;P2;SDS_P1;SDS_P2;PMS_P1;PMS_P2;Temp;Humidity;BMP_temperature;BMP_pressure;BME280_temperature;BME280_humidity;BME280_pressure;Samples;Min_cycle;Max_cycle;Signal;HPM_P1;HPM_P2
2022/08/21 00:02:27;;;;;;;14.40;2.80;;;15.50;99.90;;;;;;5047305;28;20028;-69
2022/08/21 00:04:53;;;;;;;13.43;2.67;;;15.50;99.90;;;;;;5049636;28;20475;-70
2022/08/21 00:07:20;;;;;;;12.52;2.65;;;15.50;99.90;;;;;;5054563;28;20036;-68
2022/08/21 00:09:46;;;;;;;12.80;2.65;;;15.60;99.90;;;;;;5048950;28;20037;-69
2022/08/21 00:12:12;;;;;;;13.93;2.53;;;15.70;99.90;;;;;;5046012;28;20037;-69
2022/08/21 00:14:37;;;;;;;12.90;2.40;;;15.80;99.90;;;;;;5050949;28;20029;-68
2022/08/21 00:17:04;;;;;;;14.85;2.88;;;15.90;99.90;;;;;;5047365;28;20037;-69
2022/08/21 00:19:31;;;;;;;13.10;2.92;;;16.00;99.90;;;;;;5068406;28;20036;-69
2022/08/21 00:21:56;;;;;;;11.05;2.13;;;16.00;99.90;;;;;;5044547;28;20032;-69
2022/08/21 00:24:23;;;;;;;13.25;2.40;;;16.10;99.90;;;;;;5047176;28;20727;-68
2022/08/21 00:26:49;;;;;;;13.38;2.28;;;16.10;99.90;;;;;;5047939;28;20033;-68
2022/08/21 00:29:15;;;;;;;13.95;2.45;;;16.20;99.90;;;;;;5047608;28;20033;-68
2022/08/21 00:31:42;;;;;;;10.23;2.78;;;16.20;99.90;;;;;;5046293;28;20040;-69
2022/08/21 00:34:08;;;;;;;12.82;2.53;;;16.20;99.90;;;;;;5048360;28;20585;-68
2022/08/21 00:36:35;;;;;;;12.70;2.33;;;16.30;99.90;;;;;;5056191;28;20032;-71
2022/08/21 00:39:02;;;;;;;13.38;2.03;;;16.30;99.90;;;;;;5046801;28;20029;-71
2022/08/21 00:41:28;;;;;;;12.18;2.20;;;16.30;99.90;;;;;;5050410;28;20039;-69
2022/08/21 00:43:54;;;;;;;12.43;2.80;;;16.30;99.90;;;;;;5048072;28;20060;-69
2022/08/21 00:46:20;;;;;;;13.43;2.10;;;16.40;99.90;;;;;;5046411;28;20035;-69
2022/08/21 00:48:46;;;;;;;10.63;2.17;;;16.40;99.90;;;;;;5050498;28;20177;-69
2022/08/21 00:51:25;;;;;;;10.68;2.13;;;16.40;99.90;;;;;;5048489;28;20040;-69
2022/08/21 00:53:59;;;;;;;7.95;2.05;;;16.30;99.90;;;;;;5047114;28;20079;-68
2022/08/21 00:56:26;;;;;;;10.65;2.15;;;16.40;99.90;;;;;;5045837;28;20037;-69
2022/08/21 00:58:52;;;;;;;10.13;2.08;;;16.30;99.90;;;;;;5048796;28;20086;-70
2022/08/21 01:01:18;;;;;;;11.40;2.58;;;16.30;99.90;;;;;;5047972;28;20806;-69
2022/08/21 01:03:45;;;;;;;11.10;1.83;;;16.30;99.90;;;;;;5042202;28;20052;-69
2022/08/21 01:06:11;;;;;;;11.85;2.55;;;16.30;99.90;;;;;;5045226;28;20029;-69
2022/08/21 01:08:37;;;;;;;9.82;2.08;;;16.30;99.90;;;;;;5038221;28;20035;-69
2022/08/21 01:11:04;;;;;;;9.00;2.35;;;16.20;99.90;;;;;;5047388;28;20120;-69
2022/08/21 01:13:33;;;;;;;10.30;2.03;;;16.20;99.90;;;;;;5040208;28;20040;-72
2022/08/21 01:16:03;;;;;;;13.32;2.13;;;16.20;99.90;;;;;;5053179;28;20037;-69
2022/08/21 01:18:29;;;;;;;12.18;2.35;;;16.20;99.90;;;;;;5049384;28;20133;-68
2022/08/21 01:21:09;;;;;;;9.77;2.35;;;16.10;99.90;;;;;;5047110;28;20461;-69
2022/08/21 01:23:38;;;;;;;10.25;2.00;;;16.10;99.90;;;;;;5049371;28;20029;-69
2022/08/21 01:26:04;;;;;;;10.55;1.85;;;16.10;99.90;;;;;;5049846;28;20033;-69
2022/08/21 01:28:36;;;;;;;9.25;1.80;;;16.10;99.90;;;;;;5045189;28;20056;-69
2022/08/21 01:31:04;;;;;;;13.75;2.35;;;16.10;99.90;;;;;;5052978;28;20029;-70
2022/08/21 01:33:30;;;;;;;7.13;1.70;;;16.10;99.90;;;;;;5056309;28;20029;-68
2022/08/21 01:35:56;;;;;;;9.75;1.92;;;16.10;99.90;;;;;;5054078;28;20055;-69
2022/08/21 01:38:22;;;;;;;7.88;1.65;;;16.10;99.90;;;;;;5050166;28;20037;-69
2022/08/21 01:40:48;;;;;;;7.75;1.70;;;16.10;99.90;;;;;;5050273;28;20098;-70
2022/08/21 01:43:14;;;;;;;10.45;2.15;;;16.20;99.90;;;;;;5052490;28;20033;-69
2022/08/21 01:45:39;;;;;;;8.27;1.55;;;16.30;99.90;;;;;;5053608;28;20033;-69
2022/08/21 01:48:05;;;;;;;10.32;1.80;;;16.30;99.90;;;;;;5051455;28;20032;-69
2022/08/21 01:50:31;;;;;;;10.05;2.13;;;16.30;99.90;;;;;;5054619;28;20036;-69
2022/08/21 01:52:57;;;;;;;9.43;1.83;;;16.30;99.90;;;;;;5055841;28;20029;-69
2022/08/21 01:55:23;;;;;;;8.80;1.70;;;16.30;99.90;;;;;;5052717;28;20075;-70
2022/08/21 01:57:50;;;;;;;11.75;1.80;;;16.30;99.90;;;;;;5051379;28;20028;-69
2022/08/21 02:00:18;;;;;;;9.40;1.90;;;16.30;99.90;;;;;;5054780;28;20033;-69
2022/08/21 02:02:43;;;;;;;10.63;2.20;;;16.40;99.90;;;;;;5049725;28;20049;-70
2022/08/21 02:05:11;;;;;;;10.90;2.50;;;16.30;99.90;;;;;;5056022;28;20032;-69
2022/08/21 02:07:43;;;;;;;9.80;1.88;;;16.30;99.90;;;;;;5048994;28;20662;-69
2022/08/21 02:10:11;;;;;;;9.40;1.75;;;16.30;99.90;;;;;;5050568;28;20120;-69
2022/08/21 02:12:37;;;;;;;11.38;1.73;;;16.30;99.90;;;;;;5050654;28;20032;-68
2022/08/21 02:15:06;;;;;;;8.77;1.85;;;16.30;99.90;;;;;;5049440;28;20036;-69
2022/08/21 02:17:48;;;;;;;10.38;2.10;;;16.30;99.90;;;;;;5050777;28;20495;-68
2022/08/21 02:20:24;;;;;;;10.02;2.05;;;16.30;99.90;;;;;;5048404;28;20064;-69
2022/08/21 02:22:50;;;;;;;9.68;1.80;;;16.30;99.90;;;;;;5050279;28;20040;-68
2022/08/21 02:25:16;;;;;;;12.38;2.35;;;16.20;99.90;;;;;;5056182;28;20036;-69
2022/08/21 02:27:45;;;;;;;12.07;2.15;;;16.20;99.90;;;;;;5052524;28;20048;-68
2022/08/21 02:30:22;;;;;;;10.53;2.03;;;16.20;99.90;;;;;;5047812;28;20029;-68
2022/08/21 02:32:48;;;;;;;10.95;2.47;;;16.20;99.90;;;;;;5052047;28;20494;-69
2022/08/21 02:35:14;;;;;;;9.60;2.00;;;16.10;99.90;;;;;;5049763;28;20037;-69
2022/08/21 02:37:52;;;;;;;10.40;2.05;;;16.00;99.90;;;;;;5046718;28;20033;-69
2022/08/21 02:40:21;;;;;;;9.70;2.33;;;15.90;99.90;;;;;;5047942;28;20029;-69
2022/08/21 02:42:46;;;;;;;9.40;2.05;;;15.90;99.90;;;;;;5051461;28;20517;-70
2022/08/21 02:45:13;;;;;;;10.85;2.03;;;15.80;99.90;;;;;;5060726;28;20036;-68
2022/08/21 02:47:40;;;;;;;10.55;1.90;;;15.80;99.90;;;;;;5047979;28;20064;-68
2022/08/21 02:50:07;;;;;;;8.75;1.85;;;15.80;99.90;;;;;;5049767;28;20025;-69
2022/08/21 02:52:34;;;;;;;9.90;2.20;;;15.70;99.90;;;;;;5059947;28;20033;-68
2022/08/21 02:54:59;;;;;;;8.43;2.05;;;15.60;99.90;;;;;;5054720;28;20020;-68
2022/08/21 02:57:25;;;;;;;8.23;1.92;;;15.60;99.90;;;;;;5048319;28;20090;-69
2022/08/21 02:59:51;;;;;;;8.77;1.73;;;15.60;99.90;;;;;;5076782;28;20128;-69
2022/08/21 03:02:16;;;;;;;10.88;2.25;;;15.60;99.90;;;;;;5056826;28;20105;-70
2022/08/21 03:04:42;;;;;;;11.38;2.20;;;15.60;99.90;;;;;;5057343;28;20446;-68
2022/08/21 03:07:08;;;;;;;13.38;2.30;;;15.60;99.90;;;;;;5048814;28;20029;-68
2022/08/21 03:09:33;;;;;;;13.20;1.83;;;15.50;99.90;;;;;;5054217;28;20036;-69
2022/08/21 03:11:59;;;;;;;10.77;2.33;;;15.50;99.90;;;;;;5047656;28;20040;-69
2022/08/21 03:14:25;;;;;;;13.45;2.28;;;15.50;99.90;;;;;;5053578;28;20082;-68
2022/08/21 03:16:51;;;;;;;11.63;2.40;;;15.60;99.90;;;;;;5051953;28;20663;-69
2022/08/21 03:19:16;;;;;;;12.95;2.40;;;15.60;99.90;;;;;;5054480;28;20032;-69
2022/08/21 03:21:42;;;;;;;10.35;2.15;;;15.50;99.90;;;;;;5049304;28;20033;-70
2022/08/21 03:24:08;;;;;;;9.80;2.25;;;15.60;99.90;;;;;;5052390;28;20466;-68
2022/08/21 03:26:35;;;;;;;8.88;2.03;;;15.60;99.90;;;;;;5047435;28;20573;-69
2022/08/21 03:29:00;;;;;;;13.13;2.30;;;15.60;99.90;;;;;;5047468;28;20112;-69
2022/08/21 03:31:31;;;;;;;12.43;2.67;;;15.60;99.90;;;;;;5052711;28;20123;-68
2022/08/21 03:33:58;;;;;;;15.52;2.80;;;15.60;99.90;;;;;;5055422;28;20029;-69
2022/08/21 03:36:24;;;;;;;11.32;2.47;;;15.70;99.90;;;;;;5052588;28;20036;-68
2022/08/21 03:38:50;;;;;;;10.43;2.50;;;15.70;99.90;;;;;;5054683;28;20028;-69
2022/08/21 03:41:16;;;;;;;16.15;3.08;;;15.70;99.90;;;;;;5057826;28;20136;-68
2022/08/21 03:43:42;;;;;;;10.10;2.05;;;15.70;99.90;;;;;;5057017;28;20132;-68
2022/08/21 03:46:07;;;;;;;9.80;2.20;;;15.70;99.90;;;;;;5046210;28;20036;-69
2022/08/21 03:48:35;;;;;;;11.63;2.95;;;15.70;99.90;;;;;;5063513;28;20026;-68
2022/08/21 03:51:01;;;;;;;11.13;2.80;;;15.70;99.90;;;;;;5052136;28;20043;-69
2022/08/21 03:53:27;;;;;;;14.00;2.47;;;15.70;99.90;;;;;;5048147;28;20112;-68
2022/08/21 03:55:53;;;;;;;11.00;2.65;;;15.80;99.90;;;;;;5059549;28;20652;-69
2022/08/21 03:58:22;;;;;;;9.48;2.20;;;15.70;99.90;;;;;;5055693;28;20033;-69
2022/08/21 04:00:51;;;;;;;10.55;2.30;;;15.80;99.90;;;;;;5047402;28;20494;-69
2022/08/21 04:03:18;;;;;;;12.98;2.67;;;15.80;99.90;;;;;;5048388;28;20053;-68
2022/08/21 04:05:45;;;;;;;13.38;2.65;;;15.70;99.90;;;;;;5048442;28;20544;-68
2022/08/21 04:08:12;;;;;;;14.23;2.50;;;15.80;99.90;;;;;;5055292;28;20041;-69
2022/08/21 04:10:39;;;;;;;12.57;2.65;;;15.70;99.90;;;;;;5042724;28;20033;-68
2022/08/21 04:13:06;;;;;;;11.70;2.83;;;15.70;99.90;;;;;;5048567;28;20029;-71
2022/08/21 04:15:32;;;;;;;11.23;2.50;;;15.70;99.90;;;;;;5046087;28;20060;-69
2022/08/21 04:17:58;;;;;;;10.23;2.83;;;15.60;99.90;;;;;;5051087;28;20036;-70
2022/08/21 04:20:24;;;;;;;16.05;2.70;;;15.50;99.90;;;;;;5046895;28;20372;-69
2022/08/21 04:22:51;;;;;;;11.30;2.88;;;15.50;99.90;;;;;;5047272;28;20741;-69
2022/08/21 04:25:18;;;;;;;8.68;2.53;;;15.50;99.90;;;;;;5047363;28;20036;-70
2022/08/21 04:27:44;;;;;;;13.57;2.70;;;15.40;99.90;;;;;;5046190;28;20029;-69
2022/08/21 04:30:11;;;;;;;14.77;3.00;;;15.40;99.90;;;;;;5046844;28;20029;-69
2022/08/21 04:32:38;;;;;;;15.43;3.40;;;15.40;99.90;;;;;;5044902;28;20111;-68
2022/08/21 04:35:08;;;;;;;12.65;2.88;;;15.40;99.90;;;;;;5047185;28;20033;-69
2022/08/21 04:37:34;;;;;;;12.30;2.40;;;15.40;99.90;;;;;;5043219;28;20422;-69
2022/08/21 04:40:00;;;;;;;14.77;2.75;;;15.30;99.90;;;;;;5046933;28;20056;-68
2022/08/21 04:42:27;;;;;;;10.98;2.85;;;15.20;99.90;;;;;;5060160;28;20669;-69
2022/08/21 04:44:54;;;;;;;11.27;2.40;;;15.00;99.90;;;;;;5053521;28;20033;-70
2022/08/21 04:47:19;;;;;;;12.25;2.88;;;14.90;99.90;;;;;;5050588;28;20036;-69
2022/08/21 04:49:45;;;;;;;13.55;2.75;;;14.80;99.90;;;;;;5048462;28;20032;-68
2022/08/21 04:52:14;;;;;;;10.50;2.53;;;14.60;99.90;;;;;;5048308;28;20403;-69
2022/08/21 04:54:43;;;;;;;14.43;2.80;;;14.60;99.90;;;;;;5050112;28;20037;-69
2022/08/21 04:57:10;;;;;;;12.05;2.40;;;14.60;99.90;;;;;;5047400;28;20115;-69
2022/08/21 04:59:39;;;;;;;9.52;2.45;;;14.50;99.90;;;;;;5052202;28;20032;-69
2022/08/21 05:02:06;;;;;;;10.05;2.90;;;14.40;99.90;;;;;;5044916;28;20445;-68
2022/08/21 05:04:34;;;;;;;11.20;2.33;;;14.30;99.90;;;;;;5043704;28;20091;-68
2022/08/21 05:07:03;;;;;;;8.70;2.80;;;14.40;99.90;;;;;;5047473;28;20036;-68
2022/08/21 05:09:29;;;;;;;10.68;3.13;;;14.30;99.90;;;;;;5045685;28;20034;-68
2022/08/21 05:11:55;;;;;;;12.68;2.95;;;14.30;99.90;;;;;;5048503;28;20063;-69
2022/08/21 05:14:21;;;;;;;9.45;2.47;;;14.30;99.90;;;;;;5050952;28;20068;-68
2022/08/21 05:16:47;;;;;;;11.27;2.97;;;14.20;99.90;;;;;;5050811;28;20056;-69
2022/08/21 05:19:13;;;;;;;11.18;2.78;;;14.20;99.90;;;;;;5046960;28;20037;-69
2022/08/21 05:21:43;;;;;;;11.10;3.03;;;14.20;99.90;;;;;;5049213;28;20040;-69
2022/08/21 05:24:10;;;;;;;9.77;2.80;;;14.10;99.90;;;;;;5046090;28;20132;-69
2022/08/21 05:26:36;;;;;;;12.88;2.60;;;14.00;99.90;;;;;;5054746;28;20055;-68
2022/08/21 05:29:02;;;;;;;9.40;2.80;;;14.00;99.90;;;;;;5044415;28;20516;-69
2022/08/21 05:31:28;;;;;;;12.38;3.03;;;14.00;99.90;;;;;;5046359;28;20031;-68
2022/08/21 05:33:54;;;;;;;12.85;3.38;;;14.00;99.90;;;;;;5049217;28;20124;-69
2022/08/21 05:36:19;;;;;;;8.45;3.33;;;13.90;99.90;;;;;;5050524;28;20037;-68
2022/08/21 05:38:45;;;;;;;13.85;3.67;;;14.00;99.90;;;;;;5046252;28;20052;-69
2022/08/21 05:41:11;;;;;;;10.77;3.08;;;14.00;99.90;;;;;;5057396;28;20052;-69
2022/08/21 05:43:37;;;;;;;12.88;3.17;;;14.00;99.90;;;;;;5051298;28;20090;-68
2022/08/21 05:46:04;;;;;;;12.63;3.25;;;14.10;99.90;;;;;;5060937;28;20407;-70
2022/08/21 05:48:30;;;;;;;9.55;2.83;;;14.10;99.90;;;;;;5047190;28;20037;-70
2022/08/21 05:50:56;;;;;;;12.90;3.45;;;14.20;99.90;;;;;;5048014;28;20479;-68
2022/08/21 05:53:23;;;;;;;11.68;3.17;;;14.20;99.90;;;;;;5044831;28;20040;-70
2022/08/21 05:55:51;;;;;;;11.18;3.08;;;14.20;99.90;;;;;;5047817;28;20771;-68
2022/08/21 05:58:21;;;;;;;13.57;2.92;;;14.30;99.90;;;;;;5047045;28;20040;-69
2022/08/21 06:00:49;;;;;;;13.15;3.10;;;14.30;99.90;;;;;;5042680;28;20097;-69
2022/08/21 06:03:24;;;;;;;11.73;3.97;;;14.40;99.90;;;;;;5043768;28;20475;-71
2022/08/21 06:05:50;;;;;;;13.60;3.40;;;14.50;99.90;;;;;;5051791;28;20041;-69
2022/08/21 06:08:17;;;;;;;14.82;3.80;;;14.50;99.90;;;;;;5048449;28;20033;-68
2022/08/21 06:10:43;;;;;;;11.18;2.92;;;14.60;99.90;;;;;;5042370;28;20032;-68
2022/08/21 06:13:10;;;;;;;10.95;2.30;;;14.70;99.90;;;;;;5041315;28;20032;-68
2022/08/21 06:15:36;;;;;;;8.85;2.60;;;14.70;99.90;;;;;;5043674;28;20074;-69
2022/08/21 06:18:02;;;;;;;17.63;2.97;;;14.80;99.90;;;;;;5045257;28;20037;-69
2022/08/21 06:20:28;;;;;;;12.25;2.60;;;14.90;99.90;;;;;;5045472;28;20029;-68
2022/08/21 06:22:54;;;;;;;13.25;3.33;;;15.00;99.90;;;;;;5047032;28;20174;-70
2022/08/21 06:25:19;;;;;;;13.02;2.90;;;15.00;99.90;;;;;;5048650;28;20067;-69
2022/08/21 06:27:45;;;;;;;11.07;2.83;;;15.20;99.90;;;;;;5046855;28;20558;-68
2022/08/21 06:30:11;;;;;;;10.02;3.17;;;15.20;99.90;;;;;;5048470;28;20681;-69
2022/08/21 06:32:38;;;;;;;14.23;2.85;;;15.30;99.90;;;;;;5046858;28;20106;-68
2022/08/21 06:35:04;;;;;;;11.35;2.42;;;15.40;99.90;;;;;;5047613;28;20459;-68
2022/08/21 06:37:31;;;;;;;10.00;2.58;;;15.40;99.90;;;;;;5046797;28;20048;-70
2022/08/21 06:39:56;;;;;;;10.63;3.08;;;15.50;99.90;;;;;;5046193;28;20756;-68
2022/08/21 06:42:22;;;;;;;11.60;2.78;;;15.60;99.90;;;;;;5047476;28;20044;-68
2022/08/21 06:44:48;;;;;;;10.35;2.72;;;15.70;99.90;;;;;;5044317;28;20395;-68
2022/08/21 06:47:14;;;;;;;13.63;2.92;;;15.70;99.90;;;;;;5039779;28;20052;-68
2022/08/21 06:49:40;;;;;;;15.77;3.42;;;15.80;99.90;;;;;;5042014;28;20032;-68
2022/08/21 06:52:10;;;;;;;8.40;2.60;;;15.90;99.90;;;;;;5049893;28;20552;-70
2022/08/21 06:54:36;;;;;;;11.77;2.92;;;16.00;99.90;;;;;;5045235;28;20035;-68
2022/08/21 06:57:02;;;;;;;15.05;3.17;;;16.10;99.90;;;;;;5046623;28;20068;-68
2022/08/21 06:59:28;;;;;;;13.05;3.20;;;16.20;99.90;;;;;;5045454;28;20060;-68
2022/08/21 07:01:53;;;;;;;14.15;2.88;;;16.30;99.90;;;;;;5046093;28;20159;-68
2022/08/21 07:04:19;;;;;;;11.90;2.58;;;16.30;99.90;;;;;;5045785;28;20077;-68
2022/08/21 07:06:45;;;;;;;13.27;2.60;;;16.50;99.90;;;;;;5056345;28;20032;-68
2022/08/21 07:09:11;;;;;;;15.73;2.90;;;16.40;99.90;;;;;;5057904;28;20033;-68
2022/08/21 07:11:37;;;;;;;13.38;2.53;;;16.50;99.90;;;;;;5048270;28;20038;-68
2022/08/21 07:14:04;;;;;;;15.45;3.33;;;16.50;99.90;;;;;;5059670;28;20036;-68
2022/08/21 07:16:29;;;;;;;14.43;2.63;;;16.60;99.90;;;;;;5049530;28;20060;-70
2022/08/21 07:18:55;;;;;;;8.18;2.63;;;16.60;99.90;;;;;;5044589;28;20091;-69
2022/08/21 07:21:21;;;;;;;12.88;2.53;;;16.60;99.90;;;;;;5033455;28;20505;-68
2022/08/21 07:23:50;;;;;;;8.10;2.40;;;16.70;99.90;;;;;;5037909;28;20029;-68
2022/08/21 07:26:18;;;;;;;15.13;2.85;;;16.70;99.90;;;;;;5042774;28;20086;-70
2022/08/21 07:28:43;;;;;;;9.15;2.63;;;16.70;99.90;;;;;;5043682;28;20052;-71
2022/08/21 07:31:13;;;;;;;10.05;2.38;;;16.80;99.90;;;;;;5046413;28;20068;-69
2022/08/21 07:33:39;;;;;;;10.10;2.17;;;16.80;99.90;;;;;;5044941;28;20056;-68
2022/08/21 07:36:06;;;;;;;9.77;2.30;;;16.80;99.90;;;;;;5045918;28;20068;-68
2022/08/21 07:38:31;;;;;;;10.48;1.98;;;16.80;99.90;;;;;;5045373;28;20033;-68
2022/08/21 07:40:59;;;;;;;12.90;2.42;;;16.90;99.90;;;;;;5044449;28;20041;-68
2022/08/21 07:43:25;;;;;;;12.25;2.50;;;17.00;99.90;;;;;;5041070;28;20037;-69
2022/08/21 07:45:53;;;;;;;13.43;2.75;;;17.10;99.90;;;;;;5045783;28;20048;-69
2022/08/21 07:48:19;;;;;;;14.02;2.53;;;17.10;99.90;;;;;;5046738;28;20029;-68
2022/08/21 07:50:45;;;;;;;11.60;2.25;;;17.10;99.90;;;;;;5046860;28;20133;-69
2022/08/21 07:53:11;;;;;;;11.70;2.33;;;17.10;99.90;;;;;;5051070;28;20130;-68
2022/08/21 07:55:36;;;;;;;13.57;2.92;;;17.10;99.90;;;;;;5051068;28;20560;-69
2022/08/21 07:58:02;;;;;;;11.45;2.63;;;17.20;99.90;;;;;;5044273;28;20068;-70
2022/08/21 08:00:28;;;;;;;11.00;2.40;;;17.30;99.90;;;;;;5049727;28;20025;-69
2022/08/21 08:02:55;;;;;;;11.40;2.60;;;17.30;99.90;;;;;;5043645;28;20060;-68
2022/08/21 08:05:27;;;;;;;11.90;2.88;;;17.30;99.90;;;;;;5068347;28;20388;-68
2022/08/21 08:07:52;;;;;;;11.68;2.85;;;17.30;99.90;;;;;;5049445;28;20037;-68
2022/08/21 08:10:19;;;;;;;16.23;2.63;;;17.40;99.90;;;;;;5047689;28;20044;-68
2022/08/21 08:12:45;;;;;;;10.50;2.60;;;17.40;99.90;;;;;;5047262;28;20029;-67
2022/08/21 08:15:15;;;;;;;13.88;2.90;;;17.40;99.90;;;;;;5049630;28;20033;-68
2022/08/21 08:17:41;;;;;;;13.25;2.10;;;17.50;99.90;;;;;;5042131;28;20056;-69
2022/08/21 08:20:08;;;;;;;10.73;2.60;;;17.50;99.90;;;;;;5046427;28;20072;-71
2022/08/21 08:22:35;;;;;;;11.48;2.47;;;17.50;99.90;;;;;;5046153;28;20061;-70
2022/08/21 08:25:01;;;;;;;15.55;2.55;;;17.50;99.90;;;;;;5045208;28;20063;-70
2022/08/21 08:27:27;;;;;;;10.75;2.80;;;17.60;99.90;;;;;;5045269;28;20065;-69
2022/08/21 08:29:53;;;;;;;11.15;2.53;;;17.70;99.90;;;;;;5041987;28;20043;-70
2022/08/21 08:32:19;;;;;;;12.60;2.40;;;17.70;99.90;;;;;;5041251;28;20032;-69
2022/08/21 08:34:46;;;;;;;9.60;2.22;;;17.70;99.90;;;;;;5036864;28;20033;-69
2022/08/21 08:37:13;;;;;;;15.00;2.50;;;17.70;99.90;;;;;;5043996;28;20103;-69
2022/08/21 08:39:38;;;;;;;9.98;1.98;;;17.80;99.90;;;;;;5042620;28;20395;-71
2022/08/21 08:42:27;;;;;;;10.48;2.20;;;17.80;99.90;;;;;;5037067;28;20036;-69
2022/08/21 08:45:00;;;;;;;10.90;2.42;;;17.90;99.90;;;;;;5049876;28;20115;-70
2022/08/21 08:47:27;;;;;;;14.20;2.78;;;17.90;99.90;;;;;;5047289;28;20021;-68
2022/08/21 08:50:20;;;;;;;9.82;2.05;;;18.00;99.90;;;;;;5046780;28;20029;-70
2022/08/21 08:52:59;;;;;;;12.18;2.70;;;18.10;99.90;;;;;;5047091;28;20048;-69
2022/08/21 08:55:33;;;;;;;13.43;3.15;;;18.20;99.90;;;;;;5026705;28;20126;-69
2022/08/21 08:57:58;;;;;;;12.68;2.70;;;18.20;99.90;;;;;;5042530;28;20047;-69
2022/08/21 09:00:25;;;;;;;12.75;2.58;;;18.20;99.90;;;;;;5035241;28;20874;-71
2022/08/21 09:02:58;;;;;;;11.38;2.30;;;18.30;99.90;;;;;;5044437;28;20162;-68
2022/08/21 09:05:26;;;;;;;9.57;2.17;;;18.50;99.90;;;;;;5039339;28;20064;-69
2022/08/21 09:08:13;;;;;;;14.20;2.75;;;18.80;99.90;;;;;;5043732;28;20043;-70
2022/08/21 09:10:48;;;;;;;11.70;2.38;;;19.20;99.90;;;;;;5047110;28;20590;-68
2022/08/21 09:13:26;;;;;;;10.70;2.30;;;19.70;99.90;;;;;;5046530;28;20037;-68
2022/08/21 09:16:00;;;;;;;11.65;2.42;;;20.00;99.90;;;;;;5057938;28;20039;-68
2022/08/21 09:18:50;;;;;;;10.13;2.70;;;20.20;99.90;;;;;;5046233;28;20029;-68
2022/08/21 09:21:25;;;;;;;17.50;2.90;;;20.20;99.90;;;;;;5034430;28;20069;-69
2022/08/21 09:24:01;;;;;;;12.55;2.33;;;20.00;99.90;;;;;;5027417;28;20079;-68
2022/08/21 09:26:40;;;;;;;11.65;2.50;;;19.80;99.90;;;;;;5027849;28;20034;-68
2022/08/21 09:29:10;;;;;;;11.02;2.22;;;19.60;99.90;;;;;;5027694;28;20037;-69
2022/08/21 09:31:39;;;;;;;10.80;2.05;;;19.40;99.90;;;;;;5027966;28;20072;-68
2022/08/21 09:34:11;;;;;;;12.57;2.47;;;19.30;99.90;;;;;;5045722;28;20036;-69
2022/08/21 09:36:48;;;;;;;11.45;2.50;;;19.20;99.90;;;;;;5047116;28;20033;-69
2022/08/21 09:39:24;;;;;;;11.43;2.78;;;19.10;99.90;;;;;;5046276;28;20051;-70
2022/08/21 09:42:06;;;;;;;12.13;2.50;;;19.10;99.90;;;;;;5047800;28;20044;-70
2022/08/21 09:44:39;;;;;;;14.32;2.42;;;19.20;99.90;;;;;;5046106;28;20025;-70
2022/08/21 09:47:05;;;;;;;11.25;2.13;;;19.40;99.90;;;;;;5047582;28;20565;-70
2022/08/21 09:49:37;;;;;;;13.00;2.67;;;19.60;99.90;;;;;;5048867;28;20036;-69
2022/08/21 09:52:15;;;;;;;10.23;3.05;;;19.60;99.90;;;;;;5040598;28;20420;-70
2022/08/21 09:54:41;;;;;;;12.95;2.33;;;19.80;99.90;;;;;;5033689;28;20033;-72
2022/08/21 09:59:54;;;;;;;11.35;2.63;;;19.90;99.90;;;;;;5045132;28;20126;-70
2022/08/21 10:02:33;;;;;;;14.70;2.72;;;20.10;99.90;;;;;;5050744;28;20147;-70
2022/08/21 10:05:15;;;;;;;11.50;2.40;;;20.40;99.90;;;;;;5037141;28;20090;-70
2022/08/21 10:07:40;;;;;;;7.35;1.80;;;20.70;99.90;;;;;;5046294;28;20033;-69
2022/08/21 10:10:26;;;;;;;8.90;2.00;;;20.90;99.90;;;;;;5041233;28;20032;-70
2022/08/21 10:13:14;;;;;;;9.93;2.22;;;20.80;99.90;;;;;;5044932;28;20111;-72
2022/08/21 10:15:56;;;;;;;11.70;2.40;;;20.70;99.90;;;;;;5040557;28;20028;-69
2022/08/21 10:18:27;;;;;;;12.75;2.35;;;20.60;99.90;;;;;;5037939;28;20278;-68
2022/08/21 10:21:05;;;;;;;9.25;2.03;;;20.40;99.90;;;;;;5049136;28;20040;-70
2022/08/21 10:23:33;;;;;;;15.27;2.15;;;20.30;99.90;;;;;;5046151;28;20029;-69
2022/08/21 10:26:29;;;;;;;9.48;2.13;;;20.50;99.90;;;;;;5043122;28;20079;-70
2022/08/21 10:29:24;;;;;;;10.20;2.17;;;20.80;99.90;;;;;;5044756;28;20036;-69
2022/08/21 10:32:17;;;;;;;11.95;2.30;;;21.20;99.90;;;;;;5043353;28;20786;-69
2022/08/21 10:35:31;;;;;;;11.90;1.90;;;21.60;99.90;;;;;;5047221;28;20390;-69
2022/08/21 10:38:09;;;;;;;9.98;2.03;;;21.70;99.70;;;;;;5015026;28;20117;-70
2022/08/21 10:40:59;;;;;;;12.35;2.70;;;21.50;99.10;;;;;;5017260;28;20037;-69
2022/08/21 10:43:44;;;;;;;11.07;2.25;;;21.50;99.60;;;;;;5018495;28;20475;-70
2022/08/21 10:46:31;;;;;;;10.75;2.45;;;21.70;99.90;;;;;;5001179;28;20041;-68
2022/08/21 10:49:16;;;;;;;11.18;2.53;;;21.80;99.90;;;;;;5011447;28;20733;-68
2022/08/21 10:52:00;;;;;;;12.52;2.20;;;21.90;99.60;;;;;;5014478;28;20060;-69
2022/08/21 10:54:35;;;;;;;9.88;2.05;;;22.20;99.10;;;;;;5018077;28;20030;-69
2022/08/21 10:57:11;;;;;;;9.93;2.25;;;22.30;98.60;;;;;;5014611;28;20044;-69
2022/08/21 10:59:47;;;;;;;10.48;2.10;;;22.30;98.20;;;;;;5012971;28;20049;-69
2022/08/21 11:02:15;;;;;;;10.27;2.03;;;22.30;97.90;;;;;;5014887;28;20030;-70
2022/08/21 11:05:01;;;;;;;9.15;2.42;;;22.20;97.20;;;;;;5014386;28;20037;-70
2022/08/21 11:07:49;;;;;;;11.55;1.98;;;22.10;96.90;;;;;;5003443;28;20038;-69
2022/08/21 11:10:41;;;;;;;9.63;2.30;;;21.90;96.80;;;;;;5010452;28;20145;-69
2022/08/21 11:13:23;;;;;;;11.90;2.67;;;21.70;98.00;;;;;;5000889;28;20042;-70
2022/08/21 11:16:05;;;;;;;8.82;2.25;;;21.50;98.60;;;;;;5006038;28;20026;-69
2022/08/21 11:18:36;;;;;;;11.80;2.20;;;21.40;98.20;;;;;;5007612;28;20034;-69
2022/08/21 11:21:24;;;;;;;10.27;1.92;;;21.30;99.20;;;;;;5023208;28;20111;-70
2022/08/21 11:23:57;;;;;;;9.00;2.22;;;21.20;99.90;;;;;;5008688;28;20057;-70
2022/08/21 11:26:41;;;;;;;13.50;2.60;;;21.20;99.90;;;;;;4998972;28;20075;-70
2022/08/21 11:29:19;;;;;;;11.23;2.25;;;21.30;99.90;;;;;;5001339;28;20066;-70
2022/08/21 11:31:51;;;;;;;7.80;2.17;;;21.30;99.70;;;;;;5000218;28;20970;-69
2022/08/21 11:34:35;;;;;;;10.43;2.10;;;21.30;99.90;;;;;;5012184;28;20033;-69
2022/08/21 11:37:37;;;;;;;11.20;2.22;;;21.30;99.90;;;;;;4997486;28;20036;-69
2022/08/21 11:40:22;;;;;;;10.82;1.95;;;21.30;99.90;;;;;;5008316;28;20121;-70
2022/08/21 11:42:54;;;;;;;11.70;2.17;;;21.30;99.90;;;;;;4998802;28;20038;-70
2022/08/21 11:45:44;;;;;;;10.20;1.92;;;21.30;99.90;;;;;;4990949;28;20096;-70
2022/08/21 11:48:41;;;;;;;9.90;1.90;;;21.40;99.90;;;;;;5011114;28;20503;-70
2022/08/21 11:51:19;;;;;;;11.35;2.00;;;21.30;99.90;;;;;;5002578;28;20062;-68
2022/08/21 11:54:04;;;;;;;9.20;2.10;;;21.30;99.90;;;;;;4994711;28;20559;-68
2022/08/21 11:56:41;;;;;;;12.18;2.05;;;21.30;99.90;;;;;;5000310;28;20080;-68
2022/08/21 11:59:40;;;;;;;9.95;2.33;;;21.30;99.90;;;;;;4993031;28;20039;-69
2022/08/21 12:02:12;;;;;;;11.90;1.95;;;21.30;99.90;;;;;;5005367;28;20064;-68
2022/08/21 12:04:46;;;;;;;9.02;2.10;;;21.40;99.80;;;;;;5032969;28;20069;-70
2022/08/21 12:07:27;;;;;;;10.43;1.85;;;21.50;99.10;;;;;;5000096;28;20389;-69
2022/08/21 12:09:55;;;;;;;10.85;1.98;;;21.50;99.90;;;;;;5006889;28;20030;-69
2022/08/21 12:12:26;;;;;;;11.50;2.42;;;21.50;99.90;;;;;;5005005;28;20038;-70
2022/08/21 12:15:19;;;;;;;7.95;1.88;;;21.60;99.90;;;;;;5007504;28;20037;-69
2022/08/21 12:18:22;;;;;;;10.68;1.73;;;21.60;99.40;;;;;;5008539;28;20033;-71
2022/08/21 12:20:59;;;;;;;10.13;2.00;;;21.50;99.90;;;;;;5012660;28;20100;-69
2022/08/21 12:23:47;;;;;;;7.68;2.05;;;21.50;99.90;;;;;;5005541;28;20038;-69
2022/08/21 12:26:13;;;;;;;10.65;2.40;;;21.60;99.90;;;;;;5034897;28;20070;-69
2022/08/21 12:28:39;;;;;;;9.32;2.03;;;21.60;99.90;;;;;;5009734;28;20030;-70
2022/08/21 12:31:16;;;;;;;13.65;2.13;;;21.70;99.90;;;;;;5005690;28;20034;-70
2022/08/21 12:33:43;;;;;;;11.60;1.98;;;21.70;99.90;;;;;;5009449;28;20037;-69
2022/08/21 12:36:24;;;;;;;8.30;2.20;;;21.70;99.90;;;;;;5007631;28;20037;-71
2022/08/21 12:38:57;;;;;;;11.30;1.90;;;21.70;99.90;;;;;;5007135;28;20085;-70
2022/08/21 12:41:32;;;;;;;11.27;2.40;;;21.70;99.90;;;;;;5007262;28;20109;-71
2022/08/21 12:44:05;;;;;;;9.43;2.53;;;21.70;99.30;;;;;;5008097;28;20033;-70
2022/08/21 12:46:46;;;;;;;11.15;1.70;;;21.60;99.90;;;;;;5007782;28;20033;-72
2022/08/21 12:49:14;;;;;;;11.93;2.50;;;21.70;99.90;;;;;;5011229;28;20049;-71
2022/08/21 12:52:01;;;;;;;13.35;1.92;;;21.70;98.70;;;;;;5007492;28;20036;-70
2022/08/21 12:54:31;;;;;;;12.52;1.95;;;21.60;99.30;;;;;;5013722;28;20136;-69
2022/08/21 12:57:05;;;;;;;11.20;1.92;;;21.60;99.20;;;;;;5007917;28;20065;-68
2022/08/21 12:59:32;;;;;;;10.52;2.25;;;21.50;99.90;;;;;;5007414;28;20049;-70